sensor_id;sensor_type;location;lat;lon;timestamp;pressure;altitude;pressure_sealevel;temperature;humidity
29909;BME280;36247;51.952;6.146;2023-04-06T00:00:40;101769.09;;;2.90;100.00
29909;BME280;36247;51.952;6.146;2023-04-06T00:03:06;101764.69;;;3.04;100.00
29909;BME280;36247;51.952;6.146;2023-04-06T00:05:35;101767.75;;;3.12;100.00
29909;BME280;36247;51.952;6.146;2023-04-06T00:08:01;101761.81;;;3.14;100.00
29909;BME280;36247;51.952;6.146;2023-04-06T00:10:27;101756.47;;;3.13;100.00
29909;BME280;36247;51.952;6.146;2023-04-06T00:12:58;101759.72;;;2.94;100.00
29909;BME280;36247;51.952;6.146;2023-04-06T00:15:36;101756.38;;;2.96;100.00
29909;BME280;36247;51.952;6.146;2023-04-06T00:18:02;101755.72;;;2.71;100.00
29909;BME280;36247;51.952;6.146;2023-04-06T00:20:28;101752.78;;;2.79;100.00
29909;BME280;36247;51.952;6.146;2023-04-06T00:22:54;101752.78;;;2.79;100.00
29909;BME280;36247;51.952;6.146;2023-04-06T00:25:23;101746.25;;;2.73;100.00
29909;BME280;36247;51.952;6.146;2023-04-06T00:27:49;101742.44;;;2.53;100.00
29909;BME280;36247;51.952;6.146;2023-04-06T00:30:15;101734.59;;;2.53;100.00
29909;BME280;36247;51.952;6.146;2023-04-06T00:32:41;101736.19;;;2.51;100.00
29909;BME280;36247;51.952;6.146;2023-04-06T00:35:07;101733.59;;;2.65;100.00
29909;BME280;36247;51.952;6.146;2023-04-06T00:37:33;101738.03;;;2.67;100.00
29909;BME280;36247;51.952;6.146;2023-04-06T00:40:09;101729.00;;;2.46;100.00
29909;BME280;36247;51.952;6.146;2023-04-06T00:42:35;101727.44;;;2.50;100.00
29909;BME280;36247;51.952;6.146;2023-04-06T00:45:20;101721.53;;;2.68;100.00
29909;BME280;36247;51.952;6.146;2023-04-06T00:47:48;101731.44;;;2.58;100.00
29909;BME280;36247;51.952;6.146;2023-04-06T00:50:14;101721.16;;;2.46;100.00
29909;BME280;36247;51.952;6.146;2023-04-06T00:52:40;101723.38;;;2.55;100.00
29909;BME280;36247;51.952;6.146;2023-04-06T00:55:08;101722.94;;;2.47;100.00
29909;BME280;36247;51.952;6.146;2023-04-06T00:57:40;101714.44;;;2.37;100.00
29909;BME280;36247;51.952;6.146;2023-04-06T01:00:07;101719.09;;;2.27;100.00
29909;BME280;36247;51.952;6.146;2023-04-06T01:02:37;101725.84;;;1.96;100.00
29909;BME280;36247;51.952;6.146;2023-04-06T01:05:05;101717.19;;;1.97;100.00
29909;BME280;36247;51.952;6.146;2023-04-06T01:07:47;101711.84;;;2.08;100.00
29909;BME280;36247;51.952;6.146;2023-04-06T01:10:26;101698.72;;;2.22;100.00
29909;BME280;36247;51.952;6.146;2023-04-06T01:13:18;101701.84;;;2.16;100.00
29909;BME280;36247;51.952;6.146;2023-04-06T01:15:50;101703.06;;;2.21;100.00
29909;BME280;36247;51.952;6.146;2023-04-06T01:18:30;101696.19;;;2.23;100.00
29909;BME280;36247;51.952;6.146;2023-04-06T01:21:17;101698.34;;;2.16;100.00
29909;BME280;36247;51.952;6.146;2023-04-06T01:24:00;101695.31;;;2.23;100.00
29909;BME280;36247;51.952;6.146;2023-04-06T01:26:34;101690.97;;;2.23;100.00
29909;BME280;36247;51.952;6.146;2023-04-06T01:29:08;101681.13;;;2.19;100.00
29909;BME280;36247;51.952;6.146;2023-04-06T01:31:37;101684.44;;;2.02;100.00
29909;BME280;36247;51.952;6.146;2023-04-06T01:34:06;101688.53;;;1.98;100.00
29909;BME280;36247;51.952;6.146;2023-04-06T01:36:36;101683.66;;;1.76;100.00
29909;BME280;36247;51.952;6.146;2023-04-06T01:39:21;101675.25;;;1.67;100.00
29909;BME280;36247;51.952;6.146;2023-04-06T01:41:47;101673.81;;;1.30;100.00
29909;BME280;36247;51.952;6.146;2023-04-06T01:44:18;101673.31;;;1.36;100.00
29909;BME280;36247;51.952;6.146;2023-04-06T01:46:49;101676.72;;;1.35;100.00
29909;BME280;36247;51.952;6.146;2023-04-06T01:49:18;101670.97;;;1.67;100.00
29909;BME280;36247;51.952;6.146;2023-04-06T01:51:49;101663.59;;;1.75;100.00
29909;BME280;36247;51.952;6.146;2023-04-06T01:54:15;101661.66;;;1.86;100.00
29909;BME280;36247;51.952;6.146;2023-04-06T01:57:08;101663.25;;;1.97;100.00
29909;BME280;36247;51.952;6.146;2023-04-06T01:59:44;101670.16;;;1.97;100.00
29909;BME280;36247;51.952;6.146;2023-04-06T02:02:32;101667.91;;;2.03;100.00
29909;BME280;36247;51.952;6.146;2023-04-06T02:05:03;101657.00;;;1.95;100.00
29909;BME280;36247;51.952;6.146;2023-04-06T02:07:47;101670.66;;;1.91;100.00
29909;BME280;36247;51.952;6.146;2023-04-06T02:10:19;101651.72;;;1.80;100.00
29909;BME280;36247;51.952;6.146;2023-04-06T02:12:45;101657.75;;;1.79;100.00
29909;BME280;36247;51.952;6.146;2023-04-06T02:15:18;101656.47;;;1.72;100.00
29909;BME280;36247;51.952;6.146;2023-04-06T02:17:43;101650.22;;;1.84;100.00
29909;BME280;36247;51.952;6.146;2023-04-06T02:20:13;101647.66;;;1.70;100.00
29909;BME280;36247;51.952;6.146;2023-04-06T02:22:43;101641.97;;;1.77;100.00
29909;BME280;36247;51.952;6.146;2023-04-06T02:25:11;101642.50;;;1.72;100.00
29909;BME280;36247;51.952;6.146;2023-04-06T02:27:38;101645.63;;;1.66;100.00
29909;BME280;36247;51.952;6.146;2023-04-06T02:30:06;101643.22;;;1.69;100.00
29909;BME280;36247;51.952;6.146;2023-04-06T02:32:32;101650.06;;;1.67;100.00
29909;BME280;36247;51.952;6.146;2023-04-06T02:34:58;101643.50;;;1.74;100.00
29909;BME280;36247;51.952;6.146;2023-04-06T02:37:24;101643.25;;;1.56;100.00
29909;BME280;36247;51.952;6.146;2023-04-06T02:39:51;101645.91;;;1.29;100.00
29909;BME280;36247;51.952;6.146;2023-04-06T02:42:17;101643.78;;;1.23;100.00
29909;BME280;36247;51.952;6.146;2023-04-06T02:44:53;101637.38;;;1.18;100.00
29909;BME280;36247;51.952;6.146;2023-04-06T02:47:25;101631.50;;;0.94;100.00
29909;BME280;36247;51.952;6.146;2023-04-06T02:49:51;101630.66;;;0.95;100.00
29909;BME280;36247;51.952;6.146;2023-04-06T02:52:17;101627.47;;;0.99;100.00
29909;BME280;36247;51.952;6.146;2023-04-06T02:54:44;101632.53;;;1.38;100.00
29909;BME280;36247;51.952;6.146;2023-04-06T02:57:10;101630.41;;;1.46;100.00
29909;BME280;36247;51.952;6.146;2023-04-06T02:59:41;101620.69;;;1.30;100.00
29909;BME280;36247;51.952;6.146;2023-04-06T03:02:18;101623.56;;;1.06;100.00
29909;BME280;36247;51.952;6.146;2023-04-06T03:04:51;101621.84;;;0.80;100.00
29909;BME280;36247;51.952;6.146;2023-04-06T03:07:26;101619.34;;;0.81;100.00
29909;BME280;36247;51.952;6.146;2023-04-06T03:09:52;101621.34;;;0.85;100.00
29909;BME280;36247;51.952;6.146;2023-04-06T03:12:20;101607.66;;;1.03;100.00
29909;BME280;36247;51.952;6.146;2023-04-06T03:15:05;101610.41;;;1.46;100.00
29909;BME280;36247;51.952;6.146;2023-04-06T03:17:33;101611.31;;;1.60;100.00
29909;BME280;36247;51.952;6.146;2023-04-06T03:20:05;101606.41;;;1.51;100.00
29909;BME280;36247;51.952;6.146;2023-04-06T03:22:31;101608.06;;;1.36;100.00
29909;BME280;36247;51.952;6.146;2023-04-06T03:24:59;101607.38;;;0.72;100.00
29909;BME280;36247;51.952;6.146;2023-04-06T03:27:25;101598.25;;;0.78;100.00
29909;BME280;36247;51.952;6.146;2023-04-06T03:29:50;101608.09;;;0.82;100.00
29909;BME280;36247;51.952;6.146;2023-04-06T03:32:23;101605.69;;;0.85;100.00
29909;BME280;36247;51.952;6.146;2023-04-06T03:34:49;101604.28;;;0.91;100.00
29909;BME280;36247;51.952;6.146;2023-04-06T03:37:15;101601.06;;;0.95;100.00
29909;BME280;36247;51.952;6.146;2023-04-06T03:39:46;101601.66;;;0.91;100.00
29909;BME280;36247;51.952;6.146;2023-04-06T03:42:20;101606.09;;;0.92;100.00
29909;BME280;36247;51.952;6.146;2023-04-06T03:44:52;101599.06;;;0.91;100.00
29909;BME280;36247;51.952;6.146;2023-04-06T03:47:18;101603.38;;;1.03;100.00
29909;BME280;36247;51.952;6.146;2023-04-06T03:49:44;101604.13;;;1.29;100.00
29909;BME280;36247;51.952;6.146;2023-04-06T03:52:12;101597.34;;;1.46;100.00
29909;BME280;36247;51.952;6.146;2023-04-06T03:54:46;101598.38;;;1.48;100.00
29909;BME280;36247;51.952;6.146;2023-04-06T03:57:14;101594.28;;;1.38;100.00
29909;BME280;36247;51.952;6.146;2023-04-06T03:59:41;101594.31;;;1.25;100.00
29909;BME280;36247;51.952;6.146;2023-04-06T04:02:06;101596.38;;;1.44;100.00
29909;BME280;36247;51.952;6.146;2023-04-06T04:04:32;101592.06;;;1.31;100.00
29909;BME280;36247;51.952;6.146;2023-04-06T04:06:57;101594.44;;;1.00;100.00
29909;BME280;36247;51.952;6.146;2023-04-06T04:09:23;101585.91;;;1.02;100.00
29909;BME280;36247;51.952;6.146;2023-04-06T04:11:50;101589.41;;;1.03;100.00
29909;BME280;36247;51.952;6.146;2023-04-06T04:14:15;101601.66;;;1.04;100.00
29909;BME280;36247;51.952;6.146;2023-04-06T04:16:41;101593.72;;;1.02;100.00
29909;BME280;36247;51.952;6.146;2023-04-06T04:19:07;101592.44;;;0.96;100.00
29909;BME280;36247;51.952;6.146;2023-04-06T04:21:33;101590.84;;;0.98;100.00
29909;BME280;36247;51.952;6.146;2023-04-06T04:24:05;101592.25;;;0.79;100.00
29909;BME280;36247;51.952;6.146;2023-04-06T04:26:33;101599.88;;;0.76;100.00
29909;BME280;36247;51.952;6.146;2023-04-06T04:28:59;101591.97;;;0.61;100.00
29909;BME280;36247;51.952;6.146;2023-04-06T04:31:25;101588.31;;;0.99;100.00
29909;BME280;36247;51.952;6.146;2023-04-06T04:33:55;101593.34;;;0.69;100.00
29909;BME280;36247;51.952;6.146;2023-04-06T04:36:27;101586.13;;;0.65;100.00
29909;BME280;36247;51.952;6.146;2023-04-06T04:38:54;101590.75;;;0.69;100.00
29909;BME280;36247;51.952;6.146;2023-04-06T04:41:21;101591.13;;;0.89;100.00
29909;BME280;36247;51.952;6.146;2023-04-06T04:43:49;101586.78;;;1.03;100.00
29909;BME280;36247;51.952;6.146;2023-04-06T04:46:20;101588.50;;;1.02;100.00
29909;BME280;36247;51.952;6.146;2023-04-06T04:48:46;101589.22;;;1.00;100.00
29909;BME280;36247;51.952;6.146;2023-04-06T04:51:12;101593.25;;;0.95;100.00
29909;BME280;36247;51.952;6.146;2023-04-06T04:54:03;101593.66;;;0.87;100.00
29909;BME280;36247;51.952;6.146;2023-04-06T04:56:31;101588.44;;;0.87;100.00
29909;BME280;36247;51.952;6.146;2023-04-06T04:59:06;101594.22;;;0.97;100.00
29909;BME280;36247;51.952;6.146;2023-04-06T05:01:39;101597.03;;;1.13;100.00
29909;BME280;36247;51.952;6.146;2023-04-06T05:04:05;101589.34;;;1.43;100.00
29909;BME280;36247;51.952;6.146;2023-04-06T05:06:30;101581.19;;;1.52;100.00
29909;BME280;36247;51.952;6.146;2023-04-06T05:08:56;101583.75;;;1.65;100.00
29909;BME280;36247;51.952;6.146;2023-04-06T05:11:22;101578.09;;;1.44;100.00
29909;BME280;36247;51.952;6.146;2023-04-06T05:13:55;101587.38;;;1.39;100.00
29909;BME280;36247;51.952;6.146;2023-04-06T05:16:23;101595.06;;;1.09;100.00
29909;BME280;36247;51.952;6.146;2023-04-06T05:18:50;101584.41;;;1.48;100.00
29909;BME280;36247;51.952;6.146;2023-04-06T05:21:16;101580.66;;;1.57;100.00
29909;BME280;36247;51.952;6.146;2023-04-06T05:23:58;101579.44;;;1.66;100.00
29909;BME280;36247;51.952;6.146;2023-04-06T05:26:26;101572.59;;;1.68;100.00
29909;BME280;36247;51.952;6.146;2023-04-06T05:28:56;101576.56;;;1.76;100.00
29909;BME280;36247;51.952;6.146;2023-04-06T05:31:27;101575.25;;;1.83;100.00
29909;BME280;36247;51.952;6.146;2023-04-06T05:33:54;101568.63;;;1.74;100.00
29909;BME280;36247;51.952;6.146;2023-04-06T05:36:30;101571.44;;;1.49;100.00
29909;BME280;36247;51.952;6.146;2023-04-06T05:39:01;101575.13;;;1.66;100.00
29909;BME280;36247;51.952;6.146;2023-04-06T05:41:34;101569.69;;;1.91;100.00
29909;BME280;36247;51.952;6.146;2023-04-06T05:44:01;101575.19;;;1.96;100.00
29909;BME280;36247;51.952;6.146;2023-04-06T05:46:28;101566.63;;;1.99;100.00
29909;BME280;36247;51.952;6.146;2023-04-06T05:48:57;101573.00;;;1.89;100.00
29909;BME280;36247;51.952;6.146;2023-04-06T05:51:26;101568.00;;;2.22;100.00
29909;BME280;36247;51.952;6.146;2023-04-06T05:53:52;101561.69;;;2.48;100.00
29909;BME280;36247;51.952;6.146;2023-04-06T05:56:19;101556.72;;;2.53;100.00
29909;BME280;36247;51.952;6.146;2023-04-06T05:58:45;101562.44;;;2.77;100.00
29909;BME280;36247;51.952;6.146;2023-04-06T06:01:14;101565.03;;;2.92;100.00
29909;BME280;36247;51.952;6.146;2023-04-06T06:03:44;101563.53;;;3.12;100.00
29909;BME280;36247;51.952;6.146;2023-04-06T06:06:10;101565.63;;;3.03;100.00
29909;BME280;36247;51.952;6.146;2023-04-06T06:08:59;101559.63;;;2.89;100.00
29909;BME280;36247;51.952;6.146;2023-04-06T06:11:28;101558.78;;;3.05;100.00
29909;BME280;36247;51.952;6.146;2023-04-06T06:13:55;101552.09;;;3.10;100.00
29909;BME280;36247;51.952;6.146;2023-04-06T06:16:21;101562.59;;;3.43;100.00
29909;BME280;36247;51.952;6.146;2023-04-06T06:18:47;101552.84;;;3.89;100.00
29909;BME280;36247;51.952;6.146;2023-04-06T06:21:19;101544.38;;;4.12;100.00
29909;BME280;36247;51.952;6.146;2023-04-06T06:23:45;101543.63;;;4.49;100.00
29909;BME280;36247;51.952;6.146;2023-04-06T06:26:17;101543.63;;;4.49;100.00
29909;BME280;36247;51.952;6.146;2023-04-06T06:28:42;101552.56;;;4.70;100.00
29909;BME280;36247;51.952;6.146;2023-04-06T06:31:10;101543.09;;;4.56;100.00
29909;BME280;36247;51.952;6.146;2023-04-06T06:33:36;101551.72;;;4.71;100.00
29909;BME280;36247;51.952;6.146;2023-04-06T06:36:02;101553.75;;;4.95;100.00
29909;BME280;36247;51.952;6.146;2023-04-06T06:38:33;101555.84;;;5.40;100.00
29909;BME280;36247;51.952;6.146;2023-04-06T06:40:59;101559.03;;;5.52;100.00
29909;BME280;36247;51.952;6.146;2023-04-06T06:43:28;101560.97;;;5.56;100.00
29909;BME280;36247;51.952;6.146;2023-04-06T06:45:58;101552.34;;;5.59;100.00
29909;BME280;36247;51.952;6.146;2023-04-06T06:48:24;101550.88;;;5.65;100.00
29909;BME280;36247;51.952;6.146;2023-04-06T06:50:50;101554.28;;;5.82;100.00
29909;BME280;36247;51.952;6.146;2023-04-06T06:53:16;101551.53;;;5.79;100.00
29909;BME280;36247;51.952;6.146;2023-04-06T06:55:42;101551.25;;;5.73;100.00
29909;BME280;36247;51.952;6.146;2023-04-06T06:58:09;101552.00;;;5.90;100.00
29909;BME280;36247;51.952;6.146;2023-04-06T07:00:36;101539.34;;;6.01;100.00
29909;BME280;36247;51.952;6.146;2023-04-06T07:03:03;101540.72;;;6.12;100.00
29909;BME280;36247;51.952;6.146;2023-04-06T07:05:29;101536.09;;;6.49;100.00
29909;BME280;36247;51.952;6.146;2023-04-06T07:07:57;101533.63;;;6.75;100.00
29909;BME280;36247;51.952;6.146;2023-04-06T07:10:25;101525.88;;;6.78;100.00
29909;BME280;36247;51.952;6.146;2023-04-06T07:12:52;101529.88;;;7.13;100.00
29909;BME280;36247;51.952;6.146;2023-04-06T07:15:20;101530.34;;;7.03;100.00
29909;BME280;36247;51.952;6.146;2023-04-06T07:17:49;101524.09;;;6.99;100.00
29909;BME280;36247;51.952;6.146;2023-04-06T07:20:36;101517.97;;;7.23;100.00
29909;BME280;36247;51.952;6.146;2023-04-06T07:23:16;101514.56;;;7.26;100.00
29909;BME280;36247;51.952;6.146;2023-04-06T07:26:10;101512.00;;;7.27;100.00
29909;BME280;36247;51.952;6.146;2023-04-06T07:28:39;101512.91;;;7.52;100.00
29909;BME280;36247;51.952;6.146;2023-04-06T07:31:10;101508.19;;;7.43;100.00
29909;BME280;36247;51.952;6.146;2023-04-06T07:33:40;101510.44;;;7.56;100.00
29909;BME280;36247;51.952;6.146;2023-04-06T07:36:06;101504.88;;;7.73;100.00
29909;BME280;36247;51.952;6.146;2023-04-06T07:38:32;101504.63;;;7.91;100.00
29909;BME280;36247;51.952;6.146;2023-04-06T07:40:57;101507.91;;;7.84;100.00
29909;BME280;36247;51.952;6.146;2023-04-06T07:43:24;101502.50;;;8.05;100.00
29909;BME280;36247;51.952;6.146;2023-04-06T07:45:50;101502.06;;;8.18;100.00
29909;BME280;36247;51.952;6.146;2023-04-06T07:48:16;101497.78;;;8.22;100.00
29909;BME280;36247;51.952;6.146;2023-04-06T07:50:42;101500.09;;;8.38;100.00
29909;BME280;36247;51.952;6.146;2023-04-06T07:53:08;101499.28;;;8.67;100.00
29909;BME280;36247;51.952;6.146;2023-04-06T07:55:35;101504.75;;;8.73;100.00
29909;BME280;36247;51.952;6.146;2023-04-06T07:58:01;101499.81;;;8.83;100.00
29909;BME280;36247;51.952;6.146;2023-04-06T08:00:31;101502.31;;;9.06;100.00
29909;BME280;36247;51.952;6.146;2023-04-06T08:02:57;101504.72;;;9.29;100.00
29909;BME280;36247;51.952;6.146;2023-04-06T08:05:23;101506.84;;;9.41;99.66
29909;BME280;36247;51.952;6.146;2023-04-06T08:07:49;101499.34;;;9.26;100.00
29909;BME280;36247;51.952;6.146;2023-04-06T08:10:15;101495.31;;;9.39;99.05
29909;BME280;36247;51.952;6.146;2023-04-06T08:12:40;101502.66;;;9.49;100.00
29909;BME280;36247;51.952;6.146;2023-04-06T08:15:09;101496.75;;;9.27;98.22
29909;BME280;36247;51.952;6.146;2023-04-06T08:17:35;101506.31;;;9.24;100.00
29909;BME280;36247;51.952;6.146;2023-04-06T08:20:01;101508.19;;;8.97;100.00
29909;BME280;36247;51.952;6.146;2023-04-06T08:22:28;101500.91;;;8.90;100.00
29909;BME280;36247;51.952;6.146;2023-04-06T08:24:54;101490.75;;;9.04;100.00
29909;BME280;36247;51.952;6.146;2023-04-06T08:27:19;101502.13;;;9.02;100.00
29909;BME280;36247;51.952;6.146;2023-04-06T08:29:47;101496.72;;;9.26;100.00
29909;BME280;36247;51.952;6.146;2023-04-06T08:32:12;101493.44;;;9.34;100.00
29909;BME280;36247;51.952;6.146;2023-04-06T08:34:38;101491.94;;;9.44;100.00
29909;BME280;36247;51.952;6.146;2023-04-06T08:37:03;101488.47;;;9.45;100.00
29909;BME280;36247;51.952;6.146;2023-04-06T08:39:30;101484.81;;;9.42;100.00
29909;BME280;36247;51.952;6.146;2023-04-06T08:41:59;101484.63;;;9.35;100.00
29909;BME280;36247;51.952;6.146;2023-04-06T08:44:29;101477.25;;;9.54;100.00
29909;BME280;36247;51.952;6.146;2023-04-06T08:46:59;101484.06;;;9.46;100.00
29909;BME280;36247;51.952;6.146;2023-04-06T08:49:25;101480.91;;;9.59;100.00
29909;BME280;36247;51.952;6.146;2023-04-06T08:51:51;101478.44;;;9.65;100.00
29909;BME280;36247;51.952;6.146;2023-04-06T08:54:17;101475.56;;;9.58;100.00
29909;BME280;36247;51.952;6.146;2023-04-06T08:56:43;101474.78;;;9.60;100.00
29909;BME280;36247;51.952;6.146;2023-04-06T08:59:09;101474.25;;;9.74;100.00
29909;BME280;36247;51.952;6.146;2023-04-06T09:01:40;101479.09;;;9.58;100.00
29909;BME280;36247;51.952;6.146;2023-04-06T09:04:08;101475.19;;;9.76;100.00
29909;BME280;36247;51.952;6.146;2023-04-06T09:06:36;101478.66;;;10.06;100.00
29909;BME280;36247;51.952;6.146;2023-04-06T09:09:06;101475.41;;;10.17;100.00
29909;BME280;36247;51.952;6.146;2023-04-06T09:11:47;101480.69;;;10.17;99.94
29909;BME280;36247;51.952;6.146;2023-04-06T09:14:13;101481.81;;;10.27;100.00
29909;BME280;36247;51.952;6.146;2023-04-06T09:16:40;101481.56;;;10.51;98.29
29909;BME280;36247;51.952;6.146;2023-04-06T09:19:08;101479.38;;;10.69;98.61
29909;BME280;36247;51.952;6.146;2023-04-06T09:21:35;101486.75;;;10.83;94.28
29909;BME280;36247;51.952;6.146;2023-04-06T09:24:03;101477.69;;;11.13;95.30
29909;BME280;36247;51.952;6.146;2023-04-06T09:26:29;101473.06;;;11.45;89.34
29909;BME280;36247;51.952;6.146;2023-04-06T09:28:56;101472.53;;;12.10;91.89
29909;BME280;36247;51.952;6.146;2023-04-06T09:31:26;101464.63;;;11.64;87.74
29909;BME280;36247;51.952;6.146;2023-04-06T09:33:53;101480.00;;;11.38;84.93
29909;BME280;36247;51.952;6.146;2023-04-06T09:36:20;101467.59;;;10.96;83.99
29909;BME280;36247;51.952;6.146;2023-04-06T09:38:54;101470.59;;;11.11;88.54
29909;BME280;36247;51.952;6.146;2023-04-06T09:43:50;101461.31;;;11.32;84.98
29909;BME280;36247;51.952;6.146;2023-04-06T09:46:15;101464.59;;;11.63;83.92
29909;BME280;36247;51.952;6.146;2023-04-06T09:48:42;101462.63;;;12.00;84.99
29909;BME280;36247;51.952;6.146;2023-04-06T09:51:08;101461.00;;;12.08;81.92
29909;BME280;36247;51.952;6.146;2023-04-06T09:53:38;101461.44;;;12.34;79.80
29909;BME280;36247;51.952;6.146;2023-04-06T09:56:08;101455.94;;;12.24;78.31
29909;BME280;36247;51.952;6.146;2023-04-06T09:58:40;101453.91;;;12.07;81.02
29909;BME280;36247;51.952;6.146;2023-04-06T10:19:39;101450.50;;;12.14;85.51
29909;BME280;36247;51.952;6.146;2023-04-06T12:25:39;101452.94;;;11.14;100.00
29909;BME280;36247;51.952;6.146;2023-04-06T12:28:06;101450.25;;;11.12;100.00
29909;BME280;36247;51.952;6.146;2023-04-06T12:30:36;101440.44;;;11.06;100.00
29909;BME280;36247;51.952;6.146;2023-04-06T12:33:25;101443.56;;;10.87;100.00
29909;BME280;36247;51.952;6.146;2023-04-06T12:35:51;101445.53;;;10.57;100.00
29909;BME280;36247;51.952;6.146;2023-04-06T12:38:22;101442.63;;;10.47;100.00
29909;BME280;36247;51.952;6.146;2023-04-06T12:40:51;101434.75;;;10.50;100.00
29909;BME280;36247;51.952;6.146;2023-04-06T12:43:17;101444.69;;;10.58;100.00
29909;BME280;36247;51.952;6.146;2023-04-06T12:45:48;101446.13;;;10.46;100.00
29909;BME280;36247;51.952;6.146;2023-04-06T12:48:15;101467.03;;;10.01;100.00
29909;BME280;36247;51.952;6.146;2023-04-06T12:50:41;101468.19;;;9.78;100.00
29909;BME280;36247;51.952;6.146;2023-04-06T12:53:06;101469.81;;;9.41;100.00
29909;BME280;36247;51.952;6.146;2023-04-06T12:55:35;101458.38;;;9.74;100.00
29909;BME280;36247;51.952;6.146;2023-04-06T12:58:02;101451.94;;;9.96;100.00
29909;BME280;36247;51.952;6.146;2023-04-06T13:00:55;101451.81;;;9.59;100.00
29909;BME280;36247;51.952;6.146;2023-04-06T15:15:29;101384.69;;;8.07;100.00
29909;BME280;36247;51.952;6.146;2023-04-06T17:18:07;101305.38;;;7.49;100.00
29909;BME280;36247;51.952;6.146;2023-04-06T17:53:58;101304.25;;;7.41;100.00
29909;BME280;36247;51.952;6.146;2023-04-06T19:02:09;101317.00;;;7.29;100.00
29909;BME280;36247;51.952;6.146;2023-04-06T19:05:10;101315.09;;;7.24;100.00
29909;BME280;36247;51.952;6.146;2023-04-06T19:40:30;101309.88;;;7.26;100.00
29909;BME280;36247;51.952;6.146;2023-04-06T19:43:41;101311.41;;;7.19;100.00
29909;BME280;36247;51.952;6.146;2023-04-06T19:49:41;101303.72;;;7.26;100.00
29909;BME280;36247;51.952;6.146;2023-04-06T20:02:11;101291.19;;;7.18;100.00
29909;BME280;36247;51.952;6.146;2023-04-06T23:17:56;101271.66;;;8.22;100.00
